createdAt,value
2018-07-13T00:00:44.733Z,55.80
2018-07-13T00:01:48.919Z,56.50
2018-07-13T00:02:52.980Z,56.30
2018-07-13T00:03:57.153Z,56.00
2018-07-13T00:05:01.205Z,56.10
2018-07-13T00:06:05.417Z,56.10
2018-07-13T00:07:09.548Z,56.20
2018-07-13T00:08:13.692Z,56.20
2018-07-13T00:09:17.844Z,56.20
2018-07-13T00:10:21.985Z,56.30
2018-07-13T00:11:26.149Z,56.40
2018-07-13T00:12:30.258Z,56.50
2018-07-13T00:13:44.361Z,56.40
2018-07-13T00:14:59.158Z,56.50
2018-07-13T00:16:04.194Z,56.50
2018-07-13T00:17:08.308Z,56.40
2018-07-13T00:18:12.405Z,56.50
2018-07-13T00:19:17.252Z,56.60
2018-07-13T00:20:21.403Z,56.70
2018-07-13T00:21:25.494Z,56.70
2018-07-13T00:22:29.593Z,56.80
2018-07-13T00:23:33.710Z,56.80
2018-07-13T00:24:37.797Z,56.80
2018-07-13T00:26:45.653Z,57.40
2018-07-13T00:27:49.717Z,56.80
2018-07-13T00:28:53.777Z,56.80
2018-07-13T00:29:57.929Z,56.90
2018-07-13T00:31:01.955Z,56.90
2018-07-13T00:32:06.015Z,57.00
2018-07-13T00:33:10.215Z,57.00
2018-07-13T00:34:14.285Z,57.00
2018-07-13T00:35:18.331Z,57.10
2018-07-13T00:36:22.935Z,57.20
2018-07-13T00:37:27.033Z,57.20
2018-07-13T00:38:31.194Z,57.20
2018-07-13T00:39:35.313Z,57.20
2018-07-13T00:40:39.394Z,57.30
2018-07-13T00:41:43.470Z,58.00
2018-07-13T00:42:47.664Z,57.40
2018-07-13T00:43:51.908Z,57.50
2018-07-13T00:44:56.022Z,57.50
2018-07-13T00:46:00.110Z,57.60
2018-07-13T00:47:04.183Z,57.60
2018-07-13T00:48:08.316Z,57.70
2018-07-13T00:49:12.414Z,57.70
2018-07-13T00:50:16.557Z,57.70
2018-07-13T00:51:20.678Z,57.80
2018-07-13T00:52:24.796Z,57.80
2018-07-13T00:53:28.873Z,57.80
2018-07-13T00:54:32.991Z,57.80
2018-07-13T00:55:37.152Z,57.80
2018-07-13T00:56:41.250Z,58.10
2018-07-13T00:57:45.381Z,57.90
2018-07-13T00:58:49.481Z,57.90
2018-07-13T00:59:53.630Z,58.00
2018-07-13T01:00:57.761Z,58.00
2018-07-13T01:02:01.858Z,58.00
2018-07-13T01:03:05.953Z,58.00
2018-07-13T01:04:10.099Z,58.00
2018-07-13T01:05:14.162Z,58.10
2018-07-13T01:06:18.466Z,58.20
2018-07-13T01:07:22.867Z,58.20
2018-07-13T01:08:26.982Z,58.20
2018-07-13T01:09:31.109Z,58.20
2018-07-13T01:10:35.189Z,58.30
2018-07-13T01:11:39.335Z,58.40
2018-07-13T01:12:43.410Z,58.40
2018-07-13T01:13:47.571Z,58.50
2018-07-13T01:14:51.655Z,58.50
2018-07-13T01:15:56.006Z,58.50
2018-07-13T01:17:00.135Z,58.50
2018-07-13T01:18:04.267Z,58.50
2018-07-13T01:19:08.391Z,58.60
2018-07-13T01:20:12.570Z,58.70
2018-07-13T01:21:16.783Z,58.80
2018-07-13T01:22:20.978Z,58.80
2018-07-13T01:23:25.051Z,58.90
2018-07-13T01:24:29.189Z,58.90
2018-07-13T01:25:33.316Z,59.60
2018-07-13T01:26:37.430Z,59.00
2018-07-13T01:27:41.550Z,59.00
2018-07-13T01:28:45.717Z,59.20
2018-07-13T01:29:49.810Z,59.20
2018-07-13T01:30:53.972Z,59.30
2018-07-13T01:31:58.023Z,59.30
2018-07-13T01:33:02.361Z,59.30
2018-07-13T01:34:06.641Z,59.40
2018-07-13T01:35:10.768Z,59.50
2018-07-13T01:36:14.915Z,59.50
2018-07-13T01:37:19.005Z,59.50
2018-07-13T01:38:23.161Z,59.50
2018-07-13T01:39:27.247Z,59.60
2018-07-13T01:40:31.427Z,59.60
2018-07-13T01:41:35.554Z,59.70
2018-07-13T01:42:39.574Z,60.40
2018-07-13T01:43:43.679Z,59.80
2018-07-13T01:44:47.705Z,60.50
2018-07-13T01:45:51.848Z,59.90
2018-07-13T01:46:55.945Z,60.00
2018-07-13T01:48:00.047Z,60.00
2018-07-13T01:49:04.329Z,60.10
2018-07-13T01:50:08.525Z,60.00
2018-07-13T01:51:18.649Z,60.80
2018-07-13T01:52:28.847Z,60.00
2018-07-13T01:53:32.984Z,60.10
2018-07-13T01:54:37.037Z,60.10
2018-07-13T01:55:41.230Z,60.00
2018-07-13T01:56:45.289Z,60.00
2018-07-13T01:57:49.361Z,60.10
2018-07-13T01:58:53.493Z,60.40
2018-07-13T01:59:57.637Z,60.40
2018-07-13T02:01:01.770Z,60.50
2018-07-13T02:02:06.080Z,60.40
2018-07-13T02:03:10.117Z,60.40
2018-07-13T02:04:14.212Z,60.50
2018-07-13T02:05:18.273Z,60.50
2018-07-13T02:06:22.404Z,60.50
2018-07-13T02:07:26.422Z,60.50
2018-07-13T02:08:30.477Z,60.50
2018-07-13T02:09:34.560Z,60.50
2018-07-13T02:10:38.647Z,60.50
2018-07-13T02:12:46.457Z,60.60
2018-07-13T02:13:50.771Z,60.50
2018-07-13T02:14:54.840Z,60.70
2018-07-13T02:15:58.873Z,60.60
2018-07-13T02:17:03.209Z,60.70
2018-07-13T02:18:07.306Z,60.80
2018-07-13T02:19:11.417Z,60.80
2018-07-13T02:20:15.513Z,60.90
2018-07-13T02:21:19.709Z,60.80
2018-07-13T02:22:23.827Z,60.80
2018-07-13T02:23:28.007Z,60.80
2018-07-13T02:25:35.812Z,60.90
2018-07-13T02:27:43.655Z,61.00
2018-07-13T02:28:48.177Z,61.00
2018-07-13T02:29:52.358Z,61.00
2018-07-13T02:30:56.372Z,61.20
2018-07-13T02:32:00.513Z,61.20
2018-07-13T02:33:04.656Z,61.20
2018-07-13T02:34:09.471Z,61.20
2018-07-13T02:35:13.537Z,61.20
2018-07-13T02:36:17.663Z,61.30
2018-07-13T02:37:21.777Z,61.30
2018-07-13T02:38:25.926Z,61.30
2018-07-13T02:39:30.046Z,61.30
2018-07-13T02:40:34.191Z,62.10
2018-07-13T02:41:38.366Z,61.40
2018-07-13T02:42:42.451Z,61.40
2018-07-13T02:43:46.623Z,61.40
2018-07-13T02:44:50.754Z,61.40
2018-07-13T02:45:54.849Z,61.50
2018-07-13T02:46:58.919Z,61.60
2018-07-13T02:48:03.046Z,61.60
2018-07-13T02:49:07.139Z,61.60
2018-07-13T02:50:11.291Z,61.60
2018-07-13T02:51:15.456Z,61.70
2018-07-13T02:52:19.493Z,61.80
2018-07-13T02:53:23.572Z,61.80
2018-07-13T02:54:27.889Z,61.90
2018-07-13T02:55:32.009Z,62.10
2018-07-13T02:56:36.059Z,62.10
2018-07-13T02:57:40.090Z,62.00
2018-07-13T02:58:44.172Z,62.10
2018-07-13T02:59:48.298Z,62.10
2018-07-13T03:00:52.424Z,62.10
2018-07-13T03:01:56.498Z,62.30
2018-07-13T03:03:00.696Z,62.40
2018-07-13T03:04:04.841Z,62.50
2018-07-13T03:05:09.037Z,62.50
2018-07-13T03:06:13.113Z,62.50
2018-07-13T03:07:17.229Z,62.70
2018-07-13T03:08:21.313Z,62.70
2018-07-13T03:09:25.463Z,62.80
2018-07-13T03:10:29.543Z,62.90
2018-07-13T03:11:33.641Z,63.00
2018-07-13T03:12:37.760Z,63.10
2018-07-13T03:13:41.822Z,63.10
2018-07-13T03:14:45.880Z,63.30
2018-07-13T03:15:49.965Z,63.30
2018-07-13T03:16:54.059Z,63.20
2018-07-13T03:17:58.173Z,63.30
2018-07-13T03:19:02.223Z,64.10
2018-07-13T03:20:06.388Z,63.40
2018-07-13T03:21:10.562Z,63.40
2018-07-13T03:22:14.691Z,63.60
2018-07-13T03:23:18.763Z,63.60
2018-07-13T03:24:22.803Z,63.70
2018-07-13T03:25:26.956Z,63.60
2018-07-13T03:26:31.092Z,63.70
2018-07-13T03:27:35.218Z,63.70
2018-07-13T03:28:39.518Z,64.70
2018-07-13T03:29:43.653Z,63.90
2018-07-13T03:30:47.763Z,63.90
2018-07-13T03:31:51.872Z,63.90
2018-07-13T03:32:55.984Z,63.90
2018-07-13T03:34:00.044Z,64.00
2018-07-13T03:35:04.186Z,64.10
2018-07-13T03:36:08.297Z,64.10
2018-07-13T03:37:12.408Z,64.10
2018-07-13T03:38:16.583Z,64.20
2018-07-13T03:39:20.667Z,64.30
2018-07-13T03:40:24.750Z,64.30
2018-07-13T03:41:28.868Z,64.40
2018-07-13T03:42:33.195Z,64.40
2018-07-13T03:43:37.354Z,64.40
2018-07-13T03:44:41.445Z,64.40
2018-07-13T03:45:45.528Z,64.30
2018-07-13T03:46:49.577Z,64.30
2018-07-13T03:47:53.612Z,64.30
2018-07-13T03:48:57.747Z,64.30
2018-07-13T03:50:01.919Z,64.40
2018-07-13T03:51:06.036Z,64.30
2018-07-13T03:52:10.156Z,64.30
2018-07-13T03:53:14.203Z,64.30
2018-07-13T03:54:18.378Z,64.20
2018-07-13T03:55:22.547Z,64.30
2018-07-13T03:56:26.572Z,64.10
2018-07-13T03:57:30.632Z,64.30
2018-07-13T03:58:34.949Z,64.20
2018-07-13T03:59:39.133Z,64.30
2018-07-13T04:00:43.218Z,64.20
2018-07-13T04:01:47.314Z,64.10
2018-07-13T04:02:51.504Z,64.10
2018-07-13T04:03:55.604Z,64.10
2018-07-13T04:04:59.735Z,64.10
2018-07-13T04:06:03.892Z,64.20
2018-07-13T04:07:08.043Z,63.60
2018-07-13T04:08:12.099Z,64.20
2018-07-13T04:09:16.225Z,64.20
2018-07-13T04:10:20.344Z,64.30
2018-07-13T04:11:24.499Z,64.30
2018-07-13T04:12:28.680Z,64.30
2018-07-13T04:13:32.780Z,64.30
2018-07-13T04:14:36.886Z,64.30
2018-07-13T04:15:40.981Z,64.30
2018-07-13T04:16:45.057Z,64.30
2018-07-13T04:17:49.196Z,64.30
2018-07-13T04:18:53.305Z,64.30
2018-07-13T04:19:57.421Z,64.40
2018-07-13T04:21:01.590Z,64.40
2018-07-13T04:23:09.821Z,64.50
2018-07-13T04:24:14.111Z,64.60
2018-07-13T04:25:18.260Z,64.90
2018-07-13T04:26:22.377Z,64.80
2018-07-13T04:27:26.627Z,64.70
2018-07-13T04:28:30.679Z,64.70
2018-07-13T04:29:34.831Z,64.80
2018-07-13T04:30:38.975Z,64.80
2018-07-13T04:31:43.107Z,64.90
2018-07-13T04:32:47.181Z,65.10
2018-07-13T04:33:51.330Z,65.10
2018-07-13T04:34:55.404Z,65.10
2018-07-13T04:35:59.536Z,65.60
2018-07-13T04:37:03.967Z,65.40
2018-07-13T04:39:13.148Z,65.60
2018-07-13T04:40:17.326Z,65.60
2018-07-13T04:41:21.465Z,65.80
2018-07-13T04:42:25.554Z,65.90
2018-07-13T04:43:29.714Z,65.90
2018-07-13T04:44:33.823Z,65.90
2018-07-13T04:45:38.175Z,66.00
2018-07-13T04:46:42.285Z,66.30
2018-07-13T04:47:46.437Z,66.20
2018-07-13T04:48:50.569Z,66.30
2018-07-13T04:49:54.687Z,67.10
2018-07-13T04:50:58.781Z,66.40
2018-07-13T04:52:02.950Z,66.40
2018-07-13T04:53:07.173Z,66.50
2018-07-13T04:54:11.321Z,66.80
2018-07-13T04:55:15.416Z,66.80
2018-07-13T04:56:19.556Z,66.80
2018-07-13T04:57:23.747Z,66.80
2018-07-13T04:58:27.906Z,66.90
2018-07-13T04:59:32.098Z,66.90
2018-07-13T05:01:39.997Z,66.80
2018-07-13T05:02:44.058Z,67.00
2018-07-13T05:03:48.361Z,67.10
2018-07-13T05:04:52.494Z,67.10
2018-07-13T05:05:56.575Z,67.20
2018-07-13T05:07:00.656Z,67.30
2018-07-13T05:08:04.863Z,67.30
2018-07-13T05:09:09.461Z,67.40
2018-07-13T05:10:13.594Z,67.40
2018-07-13T05:11:17.760Z,67.40
2018-07-13T05:12:21.936Z,67.40
2018-07-13T05:13:26.057Z,67.40
2018-07-13T05:15:33.932Z,67.20
2018-07-13T05:16:38.135Z,67.30
2018-07-13T05:17:42.255Z,67.20
2018-07-13T05:18:46.373Z,67.10
2018-07-13T05:19:50.547Z,67.10
2018-07-13T05:20:54.717Z,67.00
2018-07-13T05:21:58.919Z,67.00
2018-07-13T05:23:03.127Z,66.80
2018-07-13T05:24:07.342Z,66.70
2018-07-13T05:25:11.463Z,66.70
2018-07-13T05:26:15.692Z,66.70
2018-07-13T05:27:19.968Z,66.60
2018-07-13T05:28:24.131Z,66.40
2018-07-13T05:29:28.266Z,66.40
2018-07-13T05:30:32.469Z,66.30
2018-07-13T05:31:36.623Z,66.30
2018-07-13T05:32:40.775Z,66.00
2018-07-13T05:33:44.862Z,66.50
2018-07-13T05:34:48.990Z,66.00
2018-07-13T05:35:53.145Z,66.00
2018-07-13T05:36:57.315Z,66.00
2018-07-13T05:38:01.502Z,66.60
2018-07-13T05:39:08.920Z,65.70
2018-07-13T05:40:13.075Z,65.60
2018-07-13T05:41:17.291Z,65.60
2018-07-13T05:42:21.512Z,65.30
2018-07-13T05:43:25.685Z,65.20
2018-07-13T05:44:29.920Z,65.20
2018-07-13T05:45:34.107Z,65.20
2018-07-13T05:46:38.543Z,65.20
2018-07-13T05:47:42.844Z,65.10
2018-07-13T05:48:47.039Z,64.80
2018-07-13T05:49:51.599Z,64.80
2018-07-13T05:50:55.901Z,64.80
2018-07-13T05:52:00.231Z,64.60
2018-07-13T05:53:04.391Z,64.60
2018-07-13T05:54:08.557Z,64.40
2018-07-13T05:55:12.891Z,64.40
2018-07-13T05:56:17.070Z,64.40
2018-07-13T05:57:21.296Z,64.50
2018-07-13T05:58:25.522Z,64.30
2018-07-13T05:59:29.744Z,64.30
2018-07-13T06:00:33.848Z,64.30
2018-07-13T06:01:38.047Z,64.20
2018-07-13T06:02:42.215Z,64.10
2018-07-13T06:03:46.519Z,63.80
2018-07-13T06:04:50.788Z,63.70
2018-07-13T06:05:55.001Z,63.60
2018-07-13T06:06:59.134Z,63.60
2018-07-13T06:08:03.319Z,63.30
2018-07-13T06:09:08.927Z,63.10
2018-07-13T06:10:13.044Z,63.10
2018-07-13T06:11:17.230Z,63.10
2018-07-13T06:12:21.437Z,63.00
2018-07-13T06:13:25.678Z,62.90
2018-07-13T06:14:29.787Z,63.00
2018-07-13T06:15:33.938Z,63.00
2018-07-13T06:17:41.745Z,62.60
2018-07-13T06:18:45.874Z,62.40
2018-07-13T06:19:50.006Z,62.40
2018-07-13T06:20:54.047Z,62.20
2018-07-13T06:23:01.856Z,62.10
2018-07-13T06:24:06.547Z,62.10
2018-07-13T06:25:11.149Z,62.00
2018-07-13T06:26:15.277Z,61.90
2018-07-13T06:27:19.376Z,61.90
2018-07-13T06:28:23.493Z,61.70
2018-07-13T06:29:33.855Z,61.50
2018-07-13T06:30:38.163Z,61.40
2018-07-13T06:31:42.312Z,61.20
2018-07-13T06:32:46.447Z,61.10
2018-07-13T06:33:50.543Z,60.80
2018-07-13T06:34:54.607Z,60.70
2018-07-13T06:35:58.769Z,60.70
2018-07-13T06:38:06.655Z,60.40
2018-07-13T06:39:11.996Z,60.40
2018-07-13T06:40:16.063Z,60.40
2018-07-13T06:41:20.144Z,60.30
2018-07-13T06:42:24.299Z,60.20
2018-07-13T06:44:32.136Z,60.10
2018-07-13T06:45:39.995Z,60.00
2018-07-13T06:46:46.151Z,59.90
2018-07-13T06:47:50.284Z,59.80
2018-07-13T06:48:54.412Z,59.60
2018-07-13T06:49:58.489Z,59.50
2018-07-13T06:51:02.706Z,59.50
2018-07-13T06:52:06.990Z,59.50
2018-07-13T06:53:13.883Z,59.50
2018-07-13T06:54:18.050Z,59.40
2018-07-13T06:55:22.212Z,59.90
2018-07-13T06:56:26.365Z,59.20
2018-07-13T06:57:41.693Z,59.20
2018-07-13T06:59:10.807Z,59.10
2018-07-13T07:01:24.149Z,59.00
2018-07-13T07:02:40.856Z,59.00
2018-07-13T07:04:19.065Z,59.00
2018-07-13T07:05:57.837Z,58.90
2018-07-13T07:07:21.237Z,58.90
2018-07-13T07:08:25.364Z,58.70
2018-07-13T07:09:29.585Z,58.70
2018-07-13T07:10:33.705Z,58.60
2018-07-13T07:11:37.861Z,58.70
2018-07-13T07:12:55.748Z,58.60
2018-07-13T07:13:59.833Z,58.50
2018-07-13T07:15:04.057Z,58.30
2018-07-13T07:17:11.823Z,57.90
2018-07-13T07:18:15.935Z,57.70
2018-07-13T07:19:20.074Z,57.70
2018-07-13T07:20:24.273Z,57.50
2018-07-13T07:21:28.319Z,57.50
2018-07-13T07:22:32.441Z,58.10
2018-07-13T07:23:36.689Z,57.50
2018-07-13T07:24:40.785Z,57.40
2018-07-13T07:26:48.712Z,57.10
2018-07-13T07:27:52.838Z,57.50
2018-07-13T07:28:56.887Z,56.90
2018-07-13T07:30:01.284Z,56.90
2018-07-13T07:32:09.126Z,56.90
2018-07-13T07:33:13.190Z,56.80
2018-07-13T07:34:17.270Z,56.70
2018-07-13T07:35:21.427Z,56.70
2018-07-13T07:36:25.504Z,56.50
2018-07-13T07:37:29.700Z,56.40
2018-07-13T07:38:33.905Z,56.30
2018-07-13T07:39:37.949Z,56.20
2018-07-13T07:40:42.172Z,56.10
2018-07-13T07:41:46.393Z,56.10
2018-07-13T07:42:50.700Z,56.20
2018-07-13T07:43:54.866Z,56.10
2018-07-13T07:44:59.077Z,56.00
2018-07-13T07:46:03.167Z,55.90
2018-07-13T07:47:07.343Z,55.70
2018-07-13T07:48:11.588Z,55.40
2018-07-13T07:49:15.726Z,54.80
2018-07-13T07:50:19.785Z,55.00
2018-07-13T07:51:23.897Z,55.00
2018-07-13T07:52:28.105Z,54.60
2018-07-13T07:53:32.139Z,54.50
2018-07-13T07:54:36.184Z,54.20
2018-07-13T07:55:40.321Z,54.20
2018-07-13T07:56:44.423Z,54.20
2018-07-13T07:57:48.521Z,54.00
2018-07-13T07:58:52.628Z,54.00
2018-07-13T07:59:56.752Z,53.80
2018-07-13T08:01:00.879Z,53.40
2018-07-13T08:02:05.019Z,53.30
2018-07-13T08:03:09.144Z,53.20
2018-07-13T08:04:13.325Z,53.10
2018-07-13T08:05:17.406Z,52.90
2018-07-13T08:06:21.541Z,52.90
2018-07-13T08:07:25.678Z,52.90
2018-07-13T08:08:29.708Z,52.90
2018-07-13T08:10:37.514Z,52.70
2018-07-13T08:11:41.589Z,52.40
2018-07-13T08:12:45.672Z,52.20
2018-07-13T08:13:49.900Z,52.10
2018-07-13T08:14:53.945Z,51.90
2018-07-13T08:15:58.039Z,51.90
2018-07-13T08:17:02.220Z,51.90
2018-07-13T08:18:06.269Z,51.70
2018-07-13T08:19:10.458Z,51.50
2018-07-13T08:20:19.896Z,51.50
2018-07-13T08:21:24.173Z,51.30
2018-07-13T08:22:32.173Z,51.00
2018-07-13T08:23:36.371Z,51.00
2018-07-13T08:24:40.763Z,50.80
2018-07-13T08:25:45.817Z,50.60
2018-07-13T08:26:52.423Z,50.60
2018-07-13T08:27:58.809Z,50.50
2018-07-13T08:29:03.051Z,50.50
2018-07-13T08:30:10.340Z,50.50
2018-07-13T08:31:14.637Z,50.50
2018-07-13T08:32:18.913Z,50.30
2018-07-13T08:33:23.027Z,50.20
2018-07-13T08:34:27.218Z,50.20
2018-07-13T08:35:31.260Z,49.90
2018-07-13T08:36:35.321Z,50.40
2018-07-13T08:37:39.488Z,49.70
2018-07-13T08:38:43.625Z,49.80
2018-07-13T08:39:47.754Z,49.70
2018-07-13T08:40:51.888Z,49.70
2018-07-13T08:41:56.115Z,49.70
2018-07-13T08:43:00.305Z,49.60
2018-07-13T08:44:04.533Z,49.40
2018-07-13T08:45:08.585Z,49.50
2018-07-13T08:46:12.726Z,49.60
2018-07-13T08:47:16.944Z,49.50
2018-07-13T08:48:21.106Z,49.40
2018-07-13T08:49:25.190Z,49.20
2018-07-13T08:50:29.617Z,49.00
2018-07-13T08:51:33.791Z,48.70
2018-07-13T08:52:38.075Z,48.10
2018-07-13T08:53:42.175Z,47.90
2018-07-13T08:54:46.316Z,47.60
2018-07-13T08:55:50.534Z,47.50
2018-07-13T08:56:55.032Z,47.00
2018-07-13T08:59:03.186Z,47.00
2018-07-13T09:00:07.681Z,46.70
2018-07-13T09:01:11.867Z,46.40
2018-07-13T09:02:16.123Z,45.90
2018-07-13T09:03:20.325Z,45.90
2018-07-13T09:04:24.448Z,45.80
2018-07-13T09:05:28.593Z,45.70
2018-07-13T09:06:32.841Z,45.70
2018-07-13T09:07:37.673Z,45.60
2018-07-13T09:08:41.919Z,45.30
2018-07-13T09:09:46.073Z,45.30
2018-07-13T09:10:50.355Z,45.80
2018-07-13T09:11:54.461Z,45.10
2018-07-13T09:12:58.649Z,45.00
2018-07-13T09:14:02.644Z,45.10
2018-07-13T09:15:07.459Z,45.20
2018-07-13T09:16:11.652Z,45.20
2018-07-13T09:17:15.770Z,45.00
2018-07-13T09:18:19.891Z,44.90
2018-07-13T09:19:24.084Z,45.00
2018-07-13T09:20:28.310Z,44.90
2018-07-13T09:21:32.410Z,44.70
2018-07-13T09:22:36.640Z,44.60
2018-07-13T09:23:40.743Z,44.30
2018-07-13T09:24:44.925Z,44.40
2018-07-13T09:26:59.794Z,44.60
2018-07-13T09:28:03.862Z,44.40
2018-07-13T09:29:08.013Z,44.30
2018-07-13T09:30:12.805Z,44.30
2018-07-13T09:31:16.985Z,44.10
2018-07-13T09:32:21.014Z,43.90
2018-07-13T09:33:25.167Z,43.60
2018-07-13T09:34:29.236Z,43.30
2018-07-13T09:35:33.304Z,43.20
2018-07-13T09:36:37.520Z,43.20
2018-07-13T09:38:45.422Z,43.00
2018-07-13T09:39:49.608Z,42.90
2018-07-13T09:40:53.835Z,42.90
2018-07-13T09:41:58.027Z,42.90
2018-07-13T09:43:02.131Z,42.90
2018-07-13T09:44:06.239Z,43.60
2018-07-13T09:45:10.463Z,42.90
2018-07-13T09:46:14.752Z,42.90
2018-07-13T09:47:18.818Z,42.90
2018-07-13T09:48:23.277Z,42.90
2018-07-13T09:51:41.443Z,42.40
2018-07-13T09:52:45.642Z,42.40
2018-07-13T09:53:49.923Z,42.90
2018-07-13T09:54:53.956Z,42.10
2018-07-13T09:55:58.103Z,41.80
2018-07-13T09:57:02.271Z,41.50
2018-07-13T09:58:06.382Z,40.70
2018-07-13T09:59:10.511Z,40.30
2018-07-13T10:00:14.845Z,40.20
2018-07-13T10:01:23.141Z,40.10
2018-07-13T10:02:27.542Z,39.90
2018-07-13T10:03:32.114Z,39.90
2018-07-13T10:04:36.240Z,39.40
2018-07-13T10:05:40.405Z,39.20
2018-07-13T10:06:44.558Z,39.00
2018-07-13T10:07:48.744Z,39.70
2018-07-13T10:08:52.905Z,38.80
2018-07-13T10:09:57.147Z,38.90
2018-07-13T10:11:01.245Z,39.00
2018-07-13T10:12:05.433Z,39.10
2018-07-13T10:13:09.554Z,39.10
2018-07-13T10:14:13.656Z,39.10
2018-07-13T10:15:17.930Z,39.20
2018-07-13T10:16:22.089Z,39.20
2018-07-13T10:17:26.388Z,39.10
2018-07-13T10:18:30.535Z,39.10
2018-07-13T10:19:34.684Z,38.90
2018-07-13T10:20:38.904Z,38.50
2018-07-13T10:21:44.133Z,38.30
2018-07-13T10:23:52.301Z,37.60
2018-07-13T10:24:59.180Z,38.10
2018-07-13T10:26:07.678Z,37.10
2018-07-13T10:27:12.676Z,36.90
2018-07-13T10:28:17.494Z,37.00
2018-07-13T10:29:24.098Z,36.70
2018-07-13T10:30:28.643Z,36.40
2018-07-13T10:31:32.818Z,36.40
2018-07-13T10:32:36.934Z,36.40
2018-07-13T10:33:41.797Z,36.30
2018-07-13T10:34:46.193Z,36.10
2018-07-13T10:35:50.968Z,36.10
2018-07-13T10:36:56.823Z,36.00
2018-07-13T10:38:01.780Z,36.00
2018-07-13T10:39:07.129Z,35.90
2018-07-13T10:40:11.195Z,36.60
2018-07-13T10:42:19.076Z,36.20
2018-07-13T10:43:23.199Z,35.90
2018-07-13T10:45:31.061Z,36.00
2018-07-13T10:46:35.170Z,34.50
2018-07-13T10:47:39.329Z,34.70
2018-07-13T10:48:43.426Z,35.40
2018-07-13T10:49:47.554Z,35.00
2018-07-13T10:50:51.734Z,35.70
2018-07-13T10:51:55.845Z,35.20
2018-07-13T10:52:59.981Z,35.30
2018-07-13T10:54:04.042Z,35.50
2018-07-13T10:56:11.890Z,35.30
2018-07-13T10:57:16.054Z,35.10
2018-07-13T10:58:20.119Z,34.60
2018-07-13T10:59:24.309Z,34.50
2018-07-13T11:00:28.409Z,34.10
2018-07-13T11:01:32.549Z,34.00
2018-07-13T11:02:36.610Z,33.80
2018-07-13T11:03:40.688Z,33.60
2018-07-13T11:04:44.820Z,33.20
2018-07-13T11:05:48.971Z,32.90
2018-07-13T11:06:53.157Z,32.20
2018-07-13T11:07:57.259Z,31.60
2018-07-13T11:09:01.394Z,31.80
2018-07-13T11:10:05.541Z,31.60
2018-07-13T11:11:09.712Z,31.40
2018-07-13T11:12:13.874Z,31.50
2018-07-13T11:13:18.067Z,31.40
2018-07-13T11:14:22.209Z,31.20
2018-07-13T11:15:26.372Z,31.40
2018-07-13T11:16:30.480Z,31.30
2018-07-13T11:17:34.506Z,31.30
2018-07-13T11:18:38.666Z,31.20
2018-07-13T11:19:42.905Z,31.80
2018-07-13T11:20:47.510Z,31.00
2018-07-13T11:21:51.703Z,30.70
2018-07-13T11:22:55.896Z,30.30
2018-07-13T11:24:00.049Z,30.70
2018-07-13T11:25:04.131Z,30.00
2018-07-13T11:26:08.242Z,29.90
2018-07-13T11:27:12.479Z,29.80
2018-07-13T11:28:16.598Z,29.80
2018-07-13T11:29:20.840Z,29.80
2018-07-13T11:30:24.916Z,29.70
2018-07-13T11:31:29.137Z,29.70
2018-07-13T11:33:37.114Z,29.70
2018-07-13T11:34:41.298Z,29.70
2018-07-13T11:35:45.454Z,29.30
2018-07-13T11:36:49.652Z,29.50
2018-07-13T11:37:53.755Z,29.50
2018-07-13T11:38:57.843Z,29.40
2018-07-13T11:40:02.020Z,29.30
2018-07-13T11:41:06.415Z,29.20
2018-07-13T11:42:10.693Z,29.20
2018-07-13T11:43:14.742Z,29.10
2018-07-13T11:44:18.967Z,28.90
2018-07-13T11:45:23.120Z,28.70
2018-07-13T11:46:27.272Z,28.60
2018-07-13T11:47:31.331Z,28.70
2018-07-13T11:48:35.564Z,28.90
2018-07-13T11:49:39.791Z,28.70
2018-07-13T11:50:43.886Z,28.70
2018-07-13T11:51:47.983Z,28.60
2018-07-13T11:52:52.231Z,28.50
2018-07-13T11:53:56.342Z,28.20
2018-07-13T11:55:00.468Z,28.10
2018-07-13T11:56:04.851Z,27.90
2018-07-13T11:57:08.941Z,27.70
2018-07-13T11:58:13.120Z,27.50
2018-07-13T11:59:17.248Z,27.50
2018-07-13T12:00:21.417Z,27.60
2018-07-13T12:01:25.537Z,27.80
2018-07-13T12:02:29.664Z,28.00
2018-07-13T12:03:33.736Z,28.30
2018-07-13T12:05:41.608Z,29.10
2018-07-13T12:06:45.715Z,29.40
2018-07-13T12:07:50.003Z,29.60
2018-07-13T12:08:54.084Z,29.70
2018-07-13T12:09:58.162Z,29.80
2018-07-13T12:11:02.285Z,30.50
2018-07-13T12:12:06.436Z,30.00
2018-07-13T12:13:10.536Z,30.00
2018-07-13T12:14:14.657Z,30.00
2018-07-13T12:15:18.860Z,29.90
2018-07-13T12:16:23.030Z,29.90
2018-07-13T12:17:27.244Z,30.00
2018-07-13T12:18:31.411Z,30.00
2018-07-13T12:19:35.549Z,29.90
2018-07-13T12:20:40.062Z,29.60
2018-07-13T12:21:44.184Z,29.30
2018-07-13T12:22:48.372Z,29.10
2018-07-13T12:23:52.546Z,28.70
2018-07-13T12:24:56.812Z,28.50
2018-07-13T12:26:00.929Z,28.90
2018-07-13T12:27:05.318Z,28.00
2018-07-13T12:28:09.366Z,28.00
2018-07-13T12:29:13.417Z,28.00
2018-07-13T12:30:17.525Z,27.80
2018-07-13T12:31:21.706Z,27.70
2018-07-13T12:32:25.819Z,27.60
2018-07-13T12:33:29.899Z,27.90
2018-07-13T12:34:34.092Z,27.60
2018-07-13T12:35:38.286Z,27.10
2018-07-13T12:36:42.462Z,27.20
2018-07-13T12:37:46.487Z,27.30
2018-07-13T12:38:50.593Z,27.10
2018-07-13T12:39:54.851Z,27.50
2018-07-13T12:40:58.901Z,27.20
2018-07-13T12:42:03.037Z,27.20
2018-07-13T12:43:07.275Z,27.60
2018-07-13T12:44:11.434Z,27.20
2018-07-13T12:45:15.560Z,27.20
2018-07-13T12:46:19.633Z,27.20
2018-07-13T12:47:23.744Z,27.10
2018-07-13T12:48:27.859Z,27.10
2018-07-13T12:49:31.951Z,27.00
2018-07-13T12:50:36.025Z,27.00
2018-07-13T12:51:40.108Z,27.60
2018-07-13T12:52:44.213Z,27.10
2018-07-13T12:53:48.447Z,26.90
2018-07-13T12:54:52.521Z,26.60
2018-07-13T12:55:56.729Z,26.50
2018-07-13T12:57:00.812Z,26.40
2018-07-13T12:58:05.117Z,26.30
2018-07-13T12:59:09.196Z,26.30
2018-07-13T13:00:13.413Z,26.40
2018-07-13T13:01:17.569Z,26.50
2018-07-13T13:02:21.631Z,26.60
2018-07-13T13:03:25.724Z,26.60
2018-07-13T13:04:29.792Z,26.70
2018-07-13T13:05:34.032Z,26.80
2018-07-13T13:06:38.054Z,26.70
2018-07-13T13:07:42.253Z,26.70
2018-07-13T13:08:46.361Z,26.60
2018-07-13T13:09:50.486Z,26.60
2018-07-13T13:10:54.687Z,26.50
2018-07-13T13:11:58.892Z,26.40
2018-07-13T13:13:03.044Z,26.20
2018-07-13T13:14:07.389Z,26.00
2018-07-13T13:15:11.662Z,25.90
2018-07-13T13:16:15.767Z,25.80
2018-07-13T13:18:23.653Z,25.50
2018-07-13T13:19:27.875Z,25.50
2018-07-13T13:20:32.127Z,25.60
2018-07-13T13:21:36.275Z,25.50
2018-07-13T13:22:40.417Z,25.50
2018-07-13T13:23:44.586Z,25.40
2018-07-13T13:24:48.631Z,25.40
2018-07-13T13:25:52.815Z,25.20
2018-07-13T13:26:56.866Z,25.20
2018-07-13T13:28:01.217Z,25.30
2018-07-13T13:29:05.542Z,25.70
2018-07-13T13:30:09.573Z,25.60
2018-07-13T13:31:13.701Z,25.90
2018-07-13T13:32:17.787Z,26.10
2018-07-13T13:33:21.875Z,26.10
2018-07-13T13:34:25.991Z,26.20
2018-07-13T13:35:30.188Z,26.30
2018-07-13T13:36:34.297Z,26.20
2018-07-13T13:37:38.423Z,26.20
2018-07-13T13:38:42.497Z,26.00
2018-07-13T13:39:46.862Z,25.90
2018-07-13T13:40:51.169Z,25.90
2018-07-13T13:41:55.224Z,25.90
2018-07-13T13:42:59.317Z,26.00
2018-07-13T13:44:03.369Z,26.00
2018-07-13T13:45:07.428Z,26.00
2018-07-13T13:46:11.623Z,25.90
2018-07-13T13:47:15.977Z,26.00
2018-07-13T13:48:20.105Z,25.90
2018-07-13T13:49:24.270Z,26.00
2018-07-13T13:50:28.299Z,26.00
2018-07-13T13:51:32.380Z,26.00
2018-07-13T13:52:36.483Z,26.00
2018-07-13T13:53:40.661Z,25.90
2018-07-13T13:54:45.034Z,26.00
2018-07-13T13:55:49.073Z,26.00
2018-07-13T13:56:53.175Z,26.10
2018-07-13T13:57:57.317Z,26.10
2018-07-13T13:59:01.485Z,26.00
2018-07-13T14:00:05.867Z,26.00
2018-07-13T14:01:10.010Z,25.90
2018-07-13T14:02:14.129Z,26.00
2018-07-13T14:03:18.360Z,26.00
2018-07-13T14:04:22.450Z,26.20
2018-07-13T14:05:26.687Z,26.00
2018-07-13T14:06:30.644Z,26.00
2018-07-13T14:07:34.765Z,26.10
2018-07-13T14:08:39.028Z,26.10
2018-07-13T14:09:43.147Z,26.20
2018-07-13T14:10:47.336Z,26.20
2018-07-13T14:11:51.442Z,26.20
2018-07-13T14:12:55.593Z,26.10
2018-07-13T14:13:59.659Z,26.10
2018-07-13T14:15:03.967Z,26.00
2018-07-13T14:16:08.006Z,25.90
2018-07-13T14:17:12.133Z,25.70
2018-07-13T14:18:16.331Z,25.40
2018-07-13T14:19:20.431Z,25.30
2018-07-13T14:20:24.617Z,25.20
2018-07-13T14:21:28.777Z,25.20